Main page
Satellite images 15-day forecastsClimateMarine weather Cyclones Lightning AirportsFAQ Newsletter About
Weather : Europe Africa North America South America Asia Australia-Oceania Others
Languages Contact

Buenos Aires, Argentina

Aeroparque Jorge Newbery

latitude: 34-34S, longitude: 058-25W, elevation: 6 m


METAR: SABE 261400Z 36006KT CAVOK 21/12 Q1015
TAF: SABE 261100Z 2612/2712 05010KT 9999 SCT025 BKN200 TX27/2618Z TN17/2710Z BECMG 2614/2616 09010KT BECMG 2701/2703 02010KT CAVOK

Time: 11:42 (14:42 UTC)

Current weather observation

The report was made 42 minutes ago, at 14:00 UTC
Wind 6 kt from the North
Temperature 21°C
Humidity 56%
Pressure 1015 hPa
Visibility 10 km or more
no clouds below 1500 m and no cumulonimbus

Change units

Forecast

The report was made 3 hours and 42 minutes ago, at 11:00 UTC
Forecast valid from 26 at 12 UTC to 27 at 12 UTC
Wind 10 kt from the Northeast
Visibility 10 km or more
Scattered clouds at a height of 2500 ft
Broken clouds at a height of 20000 ft
Becoming
from 26 at 14 UTC to 26 at 16 UTC
Wind 10 kt from the East
Becoming
from 27 at 01 UTC to 27 at 03 UTC
Wind 10 kt from the North/Northeast
Visibility 10 km or more
no clouds below 1500 m and no cumulonimbus
The information on this site is subject to a disclaimer
Weather : Europe Africa North America South America Asia Australia-Oceania Others
Satellite images 15-day forecastsClimateMarine weather Cyclones Lightning AirportsFAQ Languages Contact Newsletter About